sensor_id;sensor_type;location;lat;lon;timestamp;P1;durP1;ratioP1;P2;durP2;ratioP2
16308;SDS011;8263;48.880;9.276;2023-06-22T00:01:59;101.88;;;95.05;;
16308;SDS011;8263;48.880;9.276;2023-06-22T00:04:27;101.47;;;94.88;;
16308;SDS011;8263;48.880;9.276;2023-06-22T00:06:54;101.88;;;95.18;;
16308;SDS011;8263;48.880;9.276;2023-06-22T00:09:21;99.95;;;93.47;;
16308;SDS011;8263;48.880;9.276;2023-06-22T00:11:47;102.18;;;95.30;;
16308;SDS011;8263;48.880;9.276;2023-06-22T00:14:14;103.28;;;96.50;;
16308;SDS011;8263;48.880;9.276;2023-06-22T00:16:41;102.25;;;95.60;;
16308;SDS011;8263;48.880;9.276;2023-06-22T00:19:08;102.38;;;95.60;;
16308;SDS011;8263;48.880;9.276;2023-06-22T00:21:38;97.88;;;91.57;;
16308;SDS011;8263;48.880;9.276;2023-06-22T00:24:07;102.45;;;95.75;;
16308;SDS011;8263;48.880;9.276;2023-06-22T00:26:34;102.80;;;95.93;;
16308;SDS011;8263;48.880;9.276;2023-06-22T00:29:01;101.88;;;95.13;;
16308;SDS011;8263;48.880;9.276;2023-06-22T00:31:27;103.50;;;96.80;;
16308;SDS011;8263;48.880;9.276;2023-06-22T00:33:54;99.35;;;92.88;;
16308;SDS011;8263;48.880;9.276;2023-06-22T00:36:20;103.50;;;96.70;;
16308;SDS011;8263;48.880;9.276;2023-06-22T00:38:48;102.50;;;95.50;;
16308;SDS011;8263;48.880;9.276;2023-06-22T00:41:16;104.40;;;97.30;;
16308;SDS011;8263;48.880;9.276;2023-06-22T00:43:43;102.93;;;96.15;;
16308;SDS011;8263;48.880;9.276;2023-06-22T00:46:11;103.38;;;96.60;;
16308;SDS011;8263;48.880;9.276;2023-06-22T00:48:37;101.95;;;95.35;;
16308;SDS011;8263;48.880;9.276;2023-06-22T00:51:06;105.35;;;98.45;;
16308;SDS011;8263;48.880;9.276;2023-06-22T00:53:33;103.93;;;97.18;;
16308;SDS011;8263;48.880;9.276;2023-06-22T00:56:03;105.00;;;98.10;;
16308;SDS011;8263;48.880;9.276;2023-06-22T00:58:30;104.72;;;97.88;;
16308;SDS011;8263;48.880;9.276;2023-06-22T01:00:57;104.18;;;97.28;;
16308;SDS011;8263;48.880;9.276;2023-06-22T01:03:25;104.63;;;97.68;;
16308;SDS011;8263;48.880;9.276;2023-06-22T01:05:51;101.72;;;95.03;;
16308;SDS011;8263;48.880;9.276;2023-06-22T01:08:23;103.22;;;96.53;;
16308;SDS011;8263;48.880;9.276;2023-06-22T01:10:53;105.38;;;98.47;;
16308;SDS011;8263;48.880;9.276;2023-06-22T01:13:24;104.15;;;97.25;;
16308;SDS011;8263;48.880;9.276;2023-06-22T01:15:53;104.03;;;97.22;;
16308;SDS011;8263;48.880;9.276;2023-06-22T01:18:21;103.70;;;96.88;;
16308;SDS011;8263;48.880;9.276;2023-06-22T01:20:51;103.03;;;96.22;;
16308;SDS011;8263;48.880;9.276;2023-06-22T01:23:20;105.63;;;98.68;;
16308;SDS011;8263;48.880;9.276;2023-06-22T01:25:54;105.10;;;98.10;;
16308;SDS011;8263;48.880;9.276;2023-06-22T01:28:32;105.20;;;98.25;;
16308;SDS011;8263;48.880;9.276;2023-06-22T01:30:59;104.82;;;97.97;;
16308;SDS011;8263;48.880;9.276;2023-06-22T01:33:31;105.60;;;98.50;;
16308;SDS011;8263;48.880;9.276;2023-06-22T01:35:59;105.47;;;98.32;;
16308;SDS011;8263;48.880;9.276;2023-06-22T01:38:26;105.32;;;98.25;;
16308;SDS011;8263;48.880;9.276;2023-06-22T01:40:54;106.43;;;99.43;;
16308;SDS011;8263;48.880;9.276;2023-06-22T01:43:21;105.32;;;98.47;;
16308;SDS011;8263;48.880;9.276;2023-06-22T01:45:49;106.97;;;99.85;;
16308;SDS011;8263;48.880;9.276;2023-06-22T01:48:16;107.15;;;100.05;;
16308;SDS011;8263;48.880;9.276;2023-06-22T01:50:42;106.03;;;99.13;;
16308;SDS011;8263;48.880;9.276;2023-06-22T01:53:09;108.10;;;100.80;;
16308;SDS011;8263;48.880;9.276;2023-06-22T01:55:35;106.40;;;99.38;;
16308;SDS011;8263;48.880;9.276;2023-06-22T01:58:02;105.70;;;98.78;;
16308;SDS011;8263;48.880;9.276;2023-06-22T02:00:29;106.60;;;98.60;;
16308;SDS011;8263;48.880;9.276;2023-06-22T02:03:01;105.70;;;98.82;;
16308;SDS011;8263;48.880;9.276;2023-06-22T02:05:29;105.03;;;98.03;;
16308;SDS011;8263;48.880;9.276;2023-06-22T02:08:05;106.93;;;99.85;;
16308;SDS011;8263;48.880;9.276;2023-06-22T02:10:33;105.60;;;98.70;;
16308;SDS011;8263;48.880;9.276;2023-06-22T02:13:00;106.30;;;99.32;;
16308;SDS011;8263;48.880;9.276;2023-06-22T02:15:27;106.43;;;99.40;;
16308;SDS011;8263;48.880;9.276;2023-06-22T02:17:54;104.22;;;97.40;;
16308;SDS011;8263;48.880;9.276;2023-06-22T02:20:23;106.40;;;99.32;;
16308;SDS011;8263;48.880;9.276;2023-06-22T02:22:49;108.43;;;101.22;;
16308;SDS011;8263;48.880;9.276;2023-06-22T02:25:16;106.82;;;99.68;;
16308;SDS011;8263;48.880;9.276;2023-06-22T02:27:44;109.10;;;101.82;;
16308;SDS011;8263;48.880;9.276;2023-06-22T02:30:10;104.93;;;97.93;;
16308;SDS011;8263;48.880;9.276;2023-06-22T02:32:37;107.47;;;100.38;;
16308;SDS011;8263;48.880;9.276;2023-06-22T02:35:07;104.45;;;97.57;;
16308;SDS011;8263;48.880;9.276;2023-06-22T02:37:35;107.85;;;100.78;;
16308;SDS011;8263;48.880;9.276;2023-06-22T02:40:04;107.35;;;100.25;;
16308;SDS011;8263;48.880;9.276;2023-06-22T02:42:32;110.53;;;103.13;;
16308;SDS011;8263;48.880;9.276;2023-06-22T02:44:59;108.47;;;101.28;;
16308;SDS011;8263;48.880;9.276;2023-06-22T02:47:25;106.22;;;99.25;;
16308;SDS011;8263;48.880;9.276;2023-06-22T02:49:52;107.78;;;100.65;;
16308;SDS011;8263;48.880;9.276;2023-06-22T02:52:18;108.13;;;101.03;;
16308;SDS011;8263;48.880;9.276;2023-06-22T02:54:47;107.50;;;100.50;;
16308;SDS011;8263;48.880;9.276;2023-06-22T02:57:13;109.13;;;101.65;;
16308;SDS011;8263;48.880;9.276;2023-06-22T02:59:39;109.15;;;101.30;;
16308;SDS011;8263;48.880;9.276;2023-06-22T03:02:07;107.10;;;100.00;;
16308;SDS011;8263;48.880;9.276;2023-06-22T03:04:33;108.60;;;101.38;;
16308;SDS011;8263;48.880;9.276;2023-06-22T03:07:00;109.68;;;102.40;;
16308;SDS011;8263;48.880;9.276;2023-06-22T03:09:27;108.20;;;100.43;;
16308;SDS011;8263;48.880;9.276;2023-06-22T03:11:55;108.85;;;101.55;;
16308;SDS011;8263;48.880;9.276;2023-06-22T03:14:21;106.53;;;99.47;;
16308;SDS011;8263;48.880;9.276;2023-06-22T03:16:48;108.85;;;101.63;;
16308;SDS011;8263;48.880;9.276;2023-06-22T03:19:14;111.13;;;103.63;;
16308;SDS011;8263;48.880;9.276;2023-06-22T03:21:41;108.82;;;101.63;;
16308;SDS011;8263;48.880;9.276;2023-06-22T03:24:07;110.28;;;102.85;;
16308;SDS011;8263;48.880;9.276;2023-06-22T03:26:34;111.30;;;103.95;;
16308;SDS011;8263;48.880;9.276;2023-06-22T03:29:02;109.82;;;102.63;;
16308;SDS011;8263;48.880;9.276;2023-06-22T03:31:29;109.80;;;102.47;;
16308;SDS011;8263;48.880;9.276;2023-06-22T03:33:55;109.15;;;101.63;;
16308;SDS011;8263;48.880;9.276;2023-06-22T03:36:22;111.60;;;104.05;;
16308;SDS011;8263;48.880;9.276;2023-06-22T03:38:49;108.72;;;101.43;;
16308;SDS011;8263;48.880;9.276;2023-06-22T03:41:16;109.93;;;102.45;;
16308;SDS011;8263;48.880;9.276;2023-06-22T03:43:42;108.30;;;101.10;;
16308;SDS011;8263;48.880;9.276;2023-06-22T03:46:10;108.20;;;101.05;;
16308;SDS011;8263;48.880;9.276;2023-06-22T03:48:37;110.32;;;103.03;;
16308;SDS011;8263;48.880;9.276;2023-06-22T03:51:04;110.88;;;103.53;;
16308;SDS011;8263;48.880;9.276;2023-06-22T03:53:30;110.18;;;102.78;;
16308;SDS011;8263;48.880;9.276;2023-06-22T03:55:57;112.05;;;104.50;;
16308;SDS011;8263;48.880;9.276;2023-06-22T03:58:24;110.80;;;102.90;;
16308;SDS011;8263;48.880;9.276;2023-06-22T04:00:51;109.35;;;101.95;;
16308;SDS011;8263;48.880;9.276;2023-06-22T04:03:22;108.88;;;101.70;;
16308;SDS011;8263;48.880;9.276;2023-06-22T04:05:48;109.45;;;102.25;;
16308;SDS011;8263;48.880;9.276;2023-06-22T04:08:15;110.28;;;102.90;;
16308;SDS011;8263;48.880;9.276;2023-06-22T04:10:41;110.85;;;103.53;;
16308;SDS011;8263;48.880;9.276;2023-06-22T04:13:08;110.18;;;103.00;;
16308;SDS011;8263;48.880;9.276;2023-06-22T04:15:34;111.38;;;103.95;;
16308;SDS011;8263;48.880;9.276;2023-06-22T04:18:01;110.00;;;102.65;;
16308;SDS011;8263;48.880;9.276;2023-06-22T04:20:29;113.03;;;105.43;;
16308;SDS011;8263;48.880;9.276;2023-06-22T04:22:56;112.82;;;105.05;;
16308;SDS011;8263;48.880;9.276;2023-06-22T04:25:24;111.57;;;103.88;;
16308;SDS011;8263;48.880;9.276;2023-06-22T04:27:51;111.68;;;104.28;;
16308;SDS011;8263;48.880;9.276;2023-06-22T04:30:17;111.10;;;103.80;;
16308;SDS011;8263;48.880;9.276;2023-06-22T04:32:44;110.65;;;103.25;;
16308;SDS011;8263;48.880;9.276;2023-06-22T04:35:10;110.97;;;103.47;;
16308;SDS011;8263;48.880;9.276;2023-06-22T04:37:39;110.70;;;103.43;;
16308;SDS011;8263;48.880;9.276;2023-06-22T04:40:06;110.43;;;102.97;;
16308;SDS011;8263;48.880;9.276;2023-06-22T04:42:33;112.78;;;105.15;;
16308;SDS011;8263;48.880;9.276;2023-06-22T04:45:00;109.88;;;102.47;;
16308;SDS011;8263;48.880;9.276;2023-06-22T04:47:26;112.47;;;104.97;;
16308;SDS011;8263;48.880;9.276;2023-06-22T04:49:53;110.35;;;102.90;;
16308;SDS011;8263;48.880;9.276;2023-06-22T04:52:19;112.35;;;104.72;;
16308;SDS011;8263;48.880;9.276;2023-06-22T04:54:48;112.30;;;104.82;;
16308;SDS011;8263;48.880;9.276;2023-06-22T04:57:15;113.00;;;105.07;;
16308;SDS011;8263;48.880;9.276;2023-06-22T04:59:42;111.50;;;104.05;;
16308;SDS011;8263;48.880;9.276;2023-06-22T05:02:09;109.43;;;102.13;;
16308;SDS011;8263;48.880;9.276;2023-06-22T05:04:36;110.88;;;103.00;;
16308;SDS011;8263;48.880;9.276;2023-06-22T05:07:03;113.68;;;105.97;;
16308;SDS011;8263;48.880;9.276;2023-06-22T05:09:31;109.90;;;102.47;;
16308;SDS011;8263;48.880;9.276;2023-06-22T05:12:00;111.53;;;103.95;;
16308;SDS011;8263;48.880;9.276;2023-06-22T05:14:27;110.53;;;103.13;;
16308;SDS011;8263;48.880;9.276;2023-06-22T05:16:54;111.18;;;103.55;;
16308;SDS011;8263;48.880;9.276;2023-06-22T05:19:23;112.72;;;105.25;;
16308;SDS011;8263;48.880;9.276;2023-06-22T05:21:50;111.55;;;104.07;;
16308;SDS011;8263;48.880;9.276;2023-06-22T05:24:16;111.03;;;103.57;;
16308;SDS011;8263;48.880;9.276;2023-06-22T05:26:43;112.80;;;105.20;;
16308;SDS011;8263;48.880;9.276;2023-06-22T05:29:11;112.65;;;105.03;;
16308;SDS011;8263;48.880;9.276;2023-06-22T05:31:38;111.63;;;104.18;;
16308;SDS011;8263;48.880;9.276;2023-06-22T05:34:05;112.90;;;104.60;;
16308;SDS011;8263;48.880;9.276;2023-06-22T05:36:32;112.78;;;105.20;;
16308;SDS011;8263;48.880;9.276;2023-06-22T05:38:59;112.88;;;105.30;;
16308;SDS011;8263;48.880;9.276;2023-06-22T05:41:26;111.13;;;103.65;;
16308;SDS011;8263;48.880;9.276;2023-06-22T05:43:52;111.05;;;103.57;;
16308;SDS011;8263;48.880;9.276;2023-06-22T05:46:20;111.57;;;103.95;;
16308;SDS011;8263;48.880;9.276;2023-06-22T05:48:47;111.57;;;104.07;;
16308;SDS011;8263;48.880;9.276;2023-06-22T05:51:13;113.40;;;105.57;;
16308;SDS011;8263;48.880;9.276;2023-06-22T05:53:40;109.75;;;102.25;;
16308;SDS011;8263;48.880;9.276;2023-06-22T05:56:06;111.88;;;104.47;;
16308;SDS011;8263;48.880;9.276;2023-06-22T05:58:33;109.75;;;102.47;;
16308;SDS011;8263;48.880;9.276;2023-06-22T06:00:59;112.15;;;104.50;;
16308;SDS011;8263;48.880;9.276;2023-06-22T06:03:28;111.65;;;104.10;;
16308;SDS011;8263;48.880;9.276;2023-06-22T06:05:55;107.47;;;100.28;;
16308;SDS011;8263;48.880;9.276;2023-06-22T06:08:21;110.85;;;103.30;;
16308;SDS011;8263;48.880;9.276;2023-06-22T06:10:48;111.53;;;103.53;;
16308;SDS011;8263;48.880;9.276;2023-06-22T06:13:15;108.45;;;101.15;;
16308;SDS011;8263;48.880;9.276;2023-06-22T06:15:41;110.28;;;102.93;;
16308;SDS011;8263;48.880;9.276;2023-06-22T06:18:08;108.43;;;101.22;;
16308;SDS011;8263;48.880;9.276;2023-06-22T06:20:37;108.45;;;101.15;;
16308;SDS011;8263;48.880;9.276;2023-06-22T06:23:03;110.07;;;102.60;;
16308;SDS011;8263;48.880;9.276;2023-06-22T06:25:30;110.53;;;103.22;;
16308;SDS011;8263;48.880;9.276;2023-06-22T06:27:57;110.43;;;103.10;;
16308;SDS011;8263;48.880;9.276;2023-06-22T06:30:23;109.57;;;102.30;;
16308;SDS011;8263;48.880;9.276;2023-06-22T06:32:50;108.38;;;101.18;;
16308;SDS011;8263;48.880;9.276;2023-06-22T06:35:16;110.25;;;102.60;;
16308;SDS011;8263;48.880;9.276;2023-06-22T06:37:45;106.03;;;99.03;;
16308;SDS011;8263;48.880;9.276;2023-06-22T06:40:12;108.15;;;100.95;;
16308;SDS011;8263;48.880;9.276;2023-06-22T06:42:39;106.72;;;99.20;;
16308;SDS011;8263;48.880;9.276;2023-06-22T06:45:07;107.00;;;99.70;;
16308;SDS011;8263;48.880;9.276;2023-06-22T06:47:33;109.13;;;101.82;;
16308;SDS011;8263;48.880;9.276;2023-06-22T06:50:00;108.85;;;101.65;;
16308;SDS011;8263;48.880;9.276;2023-06-22T06:52:27;108.85;;;101.55;;
16308;SDS011;8263;48.880;9.276;2023-06-22T06:54:54;107.22;;;100.22;;
16308;SDS011;8263;48.880;9.276;2023-06-22T06:57:21;103.18;;;96.38;;
16308;SDS011;8263;48.880;9.276;2023-06-22T06:59:48;106.07;;;99.05;;
16308;SDS011;8263;48.880;9.276;2023-06-22T07:02:14;106.18;;;99.18;;
16308;SDS011;8263;48.880;9.276;2023-06-22T07:04:41;104.70;;;97.60;;
16308;SDS011;8263;48.880;9.276;2023-06-22T07:07:08;107.70;;;100.55;;
16308;SDS011;8263;48.880;9.276;2023-06-22T07:09:34;106.35;;;99.35;;
16308;SDS011;8263;48.880;9.276;2023-06-22T07:12:02;103.53;;;96.82;;
16308;SDS011;8263;48.880;9.276;2023-06-22T07:14:32;106.32;;;99.25;;
16308;SDS011;8263;48.880;9.276;2023-06-22T07:16:58;104.55;;;97.68;;
16308;SDS011;8263;48.880;9.276;2023-06-22T07:19:25;102.65;;;95.93;;
16308;SDS011;8263;48.880;9.276;2023-06-22T07:21:52;104.20;;;97.30;;
16308;SDS011;8263;48.880;9.276;2023-06-22T07:24:19;104.82;;;98.00;;
16308;SDS011;8263;48.880;9.276;2023-06-22T07:26:46;103.35;;;96.45;;
16308;SDS011;8263;48.880;9.276;2023-06-22T07:29:14;101.88;;;95.25;;
16308;SDS011;8263;48.880;9.276;2023-06-22T07:31:41;105.57;;;98.68;;
16308;SDS011;8263;48.880;9.276;2023-06-22T07:34:07;101.63;;;95.03;;
16308;SDS011;8263;48.880;9.276;2023-06-22T07:36:34;102.35;;;95.65;;
16308;SDS011;8263;48.880;9.276;2023-06-22T07:39:00;99.28;;;92.80;;
16308;SDS011;8263;48.880;9.276;2023-06-22T07:41:28;99.43;;;92.88;;
16308;SDS011;8263;48.880;9.276;2023-06-22T07:43:54;100.50;;;93.93;;
16308;SDS011;8263;48.880;9.276;2023-06-22T07:46:22;101.85;;;95.10;;
16308;SDS011;8263;48.880;9.276;2023-06-22T07:48:49;102.55;;;95.78;;
16308;SDS011;8263;48.880;9.276;2023-06-22T07:51:16;100.82;;;94.22;;
16308;SDS011;8263;48.880;9.276;2023-06-22T07:53:43;99.65;;;93.15;;
16308;SDS011;8263;48.880;9.276;2023-06-22T07:56:10;99.80;;;93.30;;
16308;SDS011;8263;48.880;9.276;2023-06-22T07:58:37;100.55;;;93.85;;
16308;SDS011;8263;48.880;9.276;2023-06-22T08:01:03;102.00;;;95.20;;
16308;SDS011;8263;48.880;9.276;2023-06-22T08:03:32;98.72;;;92.32;;
16308;SDS011;8263;48.880;9.276;2023-06-22T08:05:59;95.78;;;89.57;;
16308;SDS011;8263;48.880;9.276;2023-06-22T08:08:25;98.30;;;91.88;;
16308;SDS011;8263;48.880;9.276;2023-06-22T08:10:52;97.20;;;90.97;;
16308;SDS011;8263;48.880;9.276;2023-06-22T08:13:18;98.00;;;91.60;;
16308;SDS011;8263;48.880;9.276;2023-06-22T08:15:48;96.20;;;89.97;;
16308;SDS011;8263;48.880;9.276;2023-06-22T08:18:15;96.15;;;89.85;;
16308;SDS011;8263;48.880;9.276;2023-06-22T08:20:43;94.05;;;87.85;;
16308;SDS011;8263;48.880;9.276;2023-06-22T08:23:09;95.10;;;88.88;;
16308;SDS011;8263;48.880;9.276;2023-06-22T08:25:36;95.90;;;89.65;;
16308;SDS011;8263;48.880;9.276;2023-06-22T08:28:03;94.45;;;88.30;;
16308;SDS011;8263;48.880;9.276;2023-06-22T08:30:30;92.95;;;86.97;;
16308;SDS011;8263;48.880;9.276;2023-06-22T08:32:56;95.47;;;89.28;;
16308;SDS011;8263;48.880;9.276;2023-06-22T08:35:23;94.28;;;87.93;;
16308;SDS011;8263;48.880;9.276;2023-06-22T08:37:51;93.85;;;87.32;;
16308;SDS011;8263;48.880;9.276;2023-06-22T08:40:20;95.43;;;89.22;;
16308;SDS011;8263;48.880;9.276;2023-06-22T08:42:48;92.97;;;86.93;;
16308;SDS011;8263;48.880;9.276;2023-06-22T08:45:14;94.85;;;88.75;;
16308;SDS011;8263;48.880;9.276;2023-06-22T08:47:41;92.65;;;86.68;;
16308;SDS011;8263;48.880;9.276;2023-06-22T08:50:08;91.15;;;85.32;;
16308;SDS011;8263;48.880;9.276;2023-06-22T08:52:35;90.78;;;84.97;;
16308;SDS011;8263;48.880;9.276;2023-06-22T08:55:03;93.75;;;87.60;;
16308;SDS011;8263;48.880;9.276;2023-06-22T08:57:29;91.70;;;85.70;;
16308;SDS011;8263;48.880;9.276;2023-06-22T08:59:57;91.05;;;85.25;;
16308;SDS011;8263;48.880;9.276;2023-06-22T09:02:24;90.80;;;84.80;;
16308;SDS011;8263;48.880;9.276;2023-06-22T09:04:56;90.57;;;84.72;;
16308;SDS011;8263;48.880;9.276;2023-06-22T09:07:23;89.68;;;83.93;;
16308;SDS011;8263;48.880;9.276;2023-06-22T09:09:49;90.85;;;85.00;;
16308;SDS011;8263;48.880;9.276;2023-06-22T09:12:18;85.00;;;79.25;;
16308;SDS011;8263;48.880;9.276;2023-06-22T09:14:49;87.20;;;81.57;;
16308;SDS011;8263;48.880;9.276;2023-06-22T09:17:15;85.82;;;80.32;;
16308;SDS011;8263;48.880;9.276;2023-06-22T09:19:42;86.20;;;80.47;;
16308;SDS011;8263;48.880;9.276;2023-06-22T09:22:09;83.85;;;78.25;;
16308;SDS011;8263;48.880;9.276;2023-06-22T09:24:37;87.45;;;81.78;;
16308;SDS011;8263;48.880;9.276;2023-06-22T09:27:04;82.75;;;77.45;;
16308;SDS011;8263;48.880;9.276;2023-06-22T09:29:32;86.28;;;80.78;;
16308;SDS011;8263;48.880;9.276;2023-06-22T09:31:59;86.10;;;80.57;;
16308;SDS011;8263;48.880;9.276;2023-06-22T09:34:26;85.85;;;80.28;;
16308;SDS011;8263;48.880;9.276;2023-06-22T09:36:53;83.32;;;77.80;;
16308;SDS011;8263;48.880;9.276;2023-06-22T09:39:20;83.53;;;78.20;;
16308;SDS011;8263;48.880;9.276;2023-06-22T09:41:46;83.97;;;78.57;;
16308;SDS011;8263;48.880;9.276;2023-06-22T09:44:13;86.07;;;80.10;;
16308;SDS011;8263;48.880;9.276;2023-06-22T09:46:41;84.43;;;78.88;;
16308;SDS011;8263;48.880;9.276;2023-06-22T09:49:07;81.80;;;76.57;;
16308;SDS011;8263;48.880;9.276;2023-06-22T09:51:34;83.70;;;78.10;;
16308;SDS011;8263;48.880;9.276;2023-06-22T09:54:00;86.35;;;80.53;;
16308;SDS011;8263;48.880;9.276;2023-06-22T09:56:28;83.50;;;78.03;;
16308;SDS011;8263;48.880;9.276;2023-06-22T09:58:55;81.18;;;75.97;;
16308;SDS011;8263;48.880;9.276;2023-06-22T10:01:22;82.82;;;77.53;;
16308;SDS011;8263;48.880;9.276;2023-06-22T10:03:52;83.05;;;77.65;;
16308;SDS011;8263;48.880;9.276;2023-06-22T10:06:19;82.70;;;77.32;;
16308;SDS011;8263;48.880;9.276;2023-06-22T10:08:46;79.35;;;74.05;;
16308;SDS011;8263;48.880;9.276;2023-06-22T10:11:13;82.25;;;76.85;;
16308;SDS011;8263;48.880;9.276;2023-06-22T10:13:39;80.18;;;75.07;;
16308;SDS011;8263;48.880;9.276;2023-06-22T10:16:06;76.68;;;71.57;;
16308;SDS011;8263;48.880;9.276;2023-06-22T10:18:32;79.45;;;73.97;;
16308;SDS011;8263;48.880;9.276;2023-06-22T10:21:01;77.93;;;72.93;;
16308;SDS011;8263;48.880;9.276;2023-06-22T10:23:27;78.00;;;73.00;;
16308;SDS011;8263;48.880;9.276;2023-06-22T10:25:53;78.30;;;73.15;;
16308;SDS011;8263;48.880;9.276;2023-06-22T10:28:22;78.32;;;73.13;;
16308;SDS011;8263;48.880;9.276;2023-06-22T10:30:49;74.68;;;69.53;;
16308;SDS011;8263;48.880;9.276;2023-06-22T10:33:15;75.43;;;70.53;;
16308;SDS011;8263;48.880;9.276;2023-06-22T10:35:41;75.80;;;70.80;;
16308;SDS011;8263;48.880;9.276;2023-06-22T10:38:09;76.15;;;71.20;;
16308;SDS011;8263;48.880;9.276;2023-06-22T10:40:36;76.40;;;71.40;;
16308;SDS011;8263;48.880;9.276;2023-06-22T10:43:04;74.22;;;68.70;;
16308;SDS011;8263;48.880;9.276;2023-06-22T10:45:31;73.78;;;68.30;;
16308;SDS011;8263;48.880;9.276;2023-06-22T10:47:57;75.30;;;70.35;;
16308;SDS011;8263;48.880;9.276;2023-06-22T10:50:24;71.55;;;66.95;;
16308;SDS011;8263;48.880;9.276;2023-06-22T10:52:51;74.65;;;69.75;;
16308;SDS011;8263;48.880;9.276;2023-06-22T10:55:19;75.50;;;70.47;;
16308;SDS011;8263;48.880;9.276;2023-06-22T10:57:45;74.63;;;69.53;;
16308;SDS011;8263;48.880;9.276;2023-06-22T11:00:12;71.22;;;66.63;;
16308;SDS011;8263;48.880;9.276;2023-06-22T11:02:39;72.88;;;68.10;;
16308;SDS011;8263;48.880;9.276;2023-06-22T11:05:06;71.88;;;66.93;;
16308;SDS011;8263;48.880;9.276;2023-06-22T11:07:33;70.30;;;65.80;;
16308;SDS011;8263;48.880;9.276;2023-06-22T11:10:02;70.13;;;65.43;;
16308;SDS011;8263;48.880;9.276;2023-06-22T11:12:30;73.53;;;68.78;;
16308;SDS011;8263;48.880;9.276;2023-06-22T11:14:57;73.50;;;68.72;;
16308;SDS011;8263;48.880;9.276;2023-06-22T11:17:24;72.90;;;67.75;;
16308;SDS011;8263;48.880;9.276;2023-06-22T11:19:50;72.35;;;67.43;;
16308;SDS011;8263;48.880;9.276;2023-06-22T11:22:17;72.53;;;67.82;;
16308;SDS011;8263;48.880;9.276;2023-06-22T11:24:45;71.03;;;66.28;;
16308;SDS011;8263;48.880;9.276;2023-06-22T11:27:12;70.45;;;65.85;;
16308;SDS011;8263;48.880;9.276;2023-06-22T11:29:40;72.78;;;68.05;;
16308;SDS011;8263;48.880;9.276;2023-06-22T11:32:07;71.18;;;66.40;;
16308;SDS011;8263;48.880;9.276;2023-06-22T11:34:33;72.07;;;67.15;;
16308;SDS011;8263;48.880;9.276;2023-06-22T11:37:00;69.30;;;64.80;;
16308;SDS011;8263;48.880;9.276;2023-06-22T11:39:26;67.70;;;63.30;;
16308;SDS011;8263;48.880;9.276;2023-06-22T11:41:53;71.43;;;66.45;;
16308;SDS011;8263;48.880;9.276;2023-06-22T11:44:19;68.95;;;64.53;;
16308;SDS011;8263;48.880;9.276;2023-06-22T11:46:47;70.60;;;66.00;;
16308;SDS011;8263;48.880;9.276;2023-06-22T11:49:14;69.95;;;64.90;;
16308;SDS011;8263;48.880;9.276;2023-06-22T11:51:40;69.70;;;65.13;;
16308;SDS011;8263;48.880;9.276;2023-06-22T11:54:07;68.13;;;63.70;;
16308;SDS011;8263;48.880;9.276;2023-06-22T11:56:33;69.97;;;64.95;;
16308;SDS011;8263;48.880;9.276;2023-06-22T11:59:00;69.03;;;64.57;;
16308;SDS011;8263;48.880;9.276;2023-06-22T12:01:27;68.30;;;63.50;;
16308;SDS011;8263;48.880;9.276;2023-06-22T12:03:55;69.68;;;65.18;;
16308;SDS011;8263;48.880;9.276;2023-06-22T12:06:21;70.35;;;65.85;;
16308;SDS011;8263;48.880;9.276;2023-06-22T12:08:48;67.43;;;63.10;;
16308;SDS011;8263;48.880;9.276;2023-06-22T12:11:14;70.10;;;65.50;;
16308;SDS011;8263;48.880;9.276;2023-06-22T12:13:41;68.13;;;63.72;;
16308;SDS011;8263;48.880;9.276;2023-06-22T12:16:07;65.22;;;61.03;;
16308;SDS011;8263;48.880;9.276;2023-06-22T12:18:34;70.40;;;65.60;;
16308;SDS011;8263;48.880;9.276;2023-06-22T12:21:02;69.10;;;64.00;;
16308;SDS011;8263;48.880;9.276;2023-06-22T12:23:28;70.38;;;65.88;;
16308;SDS011;8263;48.880;9.276;2023-06-22T12:25:55;65.53;;;61.25;;
16308;SDS011;8263;48.880;9.276;2023-06-22T12:28:23;68.78;;;64.18;;
16308;SDS011;8263;48.880;9.276;2023-06-22T12:30:50;68.07;;;63.58;;
16308;SDS011;8263;48.880;9.276;2023-06-22T12:33:16;66.85;;;62.53;;
16308;SDS011;8263;48.880;9.276;2023-06-22T12:35:43;67.05;;;62.35;;
16308;SDS011;8263;48.880;9.276;2023-06-22T12:38:13;70.95;;;66.25;;
16308;SDS011;8263;48.880;9.276;2023-06-22T12:40:39;66.82;;;62.42;;
16308;SDS011;8263;48.880;9.276;2023-06-22T12:43:06;67.97;;;63.35;;
16308;SDS011;8263;48.880;9.276;2023-06-22T12:45:32;68.30;;;63.72;;
16308;SDS011;8263;48.880;9.276;2023-06-22T12:47:59;68.68;;;64.07;;
16308;SDS011;8263;48.880;9.276;2023-06-22T12:50:26;68.70;;;64.22;;
16308;SDS011;8263;48.880;9.276;2023-06-22T12:52:53;69.78;;;65.20;;
16308;SDS011;8263;48.880;9.276;2023-06-22T12:55:21;67.72;;;63.00;;
16308;SDS011;8263;48.880;9.276;2023-06-22T12:57:47;68.30;;;63.80;;
16308;SDS011;8263;48.880;9.276;2023-06-22T13:00:14;65.70;;;61.30;;
16308;SDS011;8263;48.880;9.276;2023-06-22T13:02:40;68.38;;;63.88;;
16308;SDS011;8263;48.880;9.276;2023-06-22T13:05:07;67.28;;;62.97;;
16308;SDS011;8263;48.880;9.276;2023-06-22T13:07:34;66.53;;;62.13;;
16308;SDS011;8263;48.880;9.276;2023-06-22T13:10:00;69.50;;;64.95;;
16308;SDS011;8263;48.880;9.276;2023-06-22T13:12:28;67.40;;;62.67;;
16308;SDS011;8263;48.880;9.276;2023-06-22T13:14:55;66.78;;;62.42;;
16308;SDS011;8263;48.880;9.276;2023-06-22T13:17:21;66.15;;;61.90;;
16308;SDS011;8263;48.880;9.276;2023-06-22T13:19:48;70.82;;;66.18;;
16308;SDS011;8263;48.880;9.276;2023-06-22T13:22:27;67.75;;;63.15;;
16308;SDS011;8263;48.880;9.276;2023-06-22T13:24:54;69.93;;;65.43;;
16308;SDS011;8263;48.880;9.276;2023-06-22T13:27:21;68.40;;;63.85;;
16308;SDS011;8263;48.880;9.276;2023-06-22T13:29:49;68.90;;;64.40;;
16308;SDS011;8263;48.880;9.276;2023-06-22T13:32:15;69.80;;;65.05;;
16308;SDS011;8263;48.880;9.276;2023-06-22T13:34:42;68.22;;;63.70;;
16308;SDS011;8263;48.880;9.276;2023-06-22T13:37:09;69.90;;;65.40;;
16308;SDS011;8263;48.880;9.276;2023-06-22T13:39:36;68.57;;;64.00;;
16308;SDS011;8263;48.880;9.276;2023-06-22T13:42:03;67.72;;;63.33;;
16308;SDS011;8263;48.880;9.276;2023-06-22T13:44:29;68.18;;;63.58;;
16308;SDS011;8263;48.880;9.276;2023-06-22T13:46:57;69.95;;;65.22;;
16308;SDS011;8263;48.880;9.276;2023-06-22T13:49:24;67.43;;;63.03;;
16308;SDS011;8263;48.880;9.276;2023-06-22T13:51:50;68.60;;;63.78;;
16308;SDS011;8263;48.880;9.276;2023-06-22T13:54:16;66.75;;;62.35;;
16308;SDS011;8263;48.880;9.276;2023-06-22T13:56:43;67.88;;;63.35;;
16308;SDS011;8263;48.880;9.276;2023-06-22T13:59:10;70.95;;;66.03;;
16308;SDS011;8263;48.880;9.276;2023-06-22T14:01:36;68.38;;;63.88;;
16308;SDS011;8263;48.880;9.276;2023-06-22T14:04:05;69.18;;;64.60;;
16308;SDS011;8263;48.880;9.276;2023-06-22T14:06:32;64.75;;;60.40;;
16308;SDS011;8263;48.880;9.276;2023-06-22T14:08:59;67.85;;;63.25;;
16308;SDS011;8263;48.880;9.276;2023-06-22T14:11:25;67.65;;;63.20;;
16308;SDS011;8263;48.880;9.276;2023-06-22T14:13:52;66.78;;;62.10;;
16308;SDS011;8263;48.880;9.276;2023-06-22T14:16:18;66.75;;;62.28;;
16308;SDS011;8263;48.880;9.276;2023-06-22T14:18:45;65.63;;;61.33;;
16308;SDS011;8263;48.880;9.276;2023-06-22T14:21:13;66.05;;;61.75;;
16308;SDS011;8263;48.880;9.276;2023-06-22T14:23:40;67.85;;;63.13;;